Time;durP1;ratioP1;P1;durP2;ratioP2;P2;SDS_P1;SDS_P2;PMS_P1;PMS_P2;Temp;Humidity;BMP_temperature;BMP_pressure;BME280_temperature;BME280_humidity;BME280_pressure;Samples;Min_cycle;Max_cycle;Signal;HPM_P1;HPM_P2
2021/10/02 00:34:20;;;;;;;6.80;6.27;;;12.70;43.30;;;;;;5072717;28;20953;-51
2021/10/02 00:44:40;;;;;;;6.90;6.37;;;12.60;99.90;;;;;;5069218;28;21329;-51
2021/10/02 00:47:11;;;;;;;9.07;6.80;;;12.60;99.90;;;;;;5076899;28;20196;-52
2021/10/02 00:49:39;;;;;;;10.37;6.13;;;12.60;99.90;;;;;;5082279;28;20462;-52
2021/10/02 00:52:08;;;;;;;7.40;6.80;;;12.70;99.90;;;;;;5074222;28;20431;-50
2021/10/02 00:54:33;;;;;;;7.53;6.73;;;12.60;99.90;;;;;;5069206;28;20918;-57
2021/10/02 00:57:00;;;;;;;6.50;5.90;;;12.60;99.90;;;;;;5068357;28;20481;-52
2021/10/02 00:59:29;;;;;;;6.67;6.07;;;12.60;99.90;;;;;;5069349;28;20201;-49
2021/10/02 01:02:17;;;;;;;6.57;5.97;;;12.60;99.90;;;;;;5066127;28;20945;-51
2021/10/02 01:05:02;;;;;;;7.77;7.07;;;12.60;99.90;;;;;;5068676;28;20422;-49
2021/10/02 01:07:40;;;;;;;6.30;5.80;;;12.60;99.90;;;;;;5069369;28;20442;-49
2021/10/02 01:10:27;;;;;;;6.50;5.90;;;12.60;99.90;;;;;;5055960;28;20463;-51
2021/10/02 01:13:08;;;;;;;6.53;5.97;;;12.60;99.90;;;;;;5086506;28;20418;-52
2021/10/02 01:15:47;;;;;;;7.93;7.13;;;12.60;99.90;;;;;;5080177;28;20419;-49
2021/10/02 01:18:26;;;;;;;6.80;6.20;;;12.60;99.90;;;;;;5062984;28;20534;-49
2021/10/02 01:21:01;;;;;;;6.90;6.20;;;12.60;99.90;;;;;;5081229;28;20546;-49
2021/10/02 01:23:27;;;;;;;7.20;6.60;;;12.60;99.90;;;;;;5072887;28;20422;-52
2021/10/02 01:26:19;;;;;;;7.17;6.57;;;12.50;99.90;;;;;;5073029;28;20914;-54
2021/10/02 01:28:53;;;;;;;6.90;6.40;;;12.50;99.90;;;;;;5076051;28;20932;-52
2021/10/02 01:31:23;;;;;;;7.10;6.50;;;12.50;99.90;;;;;;5072637;28;20931;-54
2021/10/02 01:34:02;;;;;;;6.50;6.00;;;12.50;99.90;;;;;;5088090;28;20466;-51
2021/10/02 01:36:45;;;;;;;6.40;5.90;;;12.50;99.90;;;;;;5089801;28;20783;-51
2021/10/02 01:47:43;;;;;;;7.17;6.57;;;12.50;99.90;;;;;;5092881;28;20418;-53
2021/10/02 01:50:09;;;;;;;6.57;5.97;;;12.40;99.90;;;;;;5092009;28;21134;-54
2021/10/02 01:52:41;;;;;;;6.87;6.17;;;12.40;99.90;;;;;;5088830;28;20438;-51
2021/10/02 01:55:09;;;;;;;7.00;6.40;;;12.40;99.90;;;;;;5091634;28;20417;-51
2021/10/02 01:57:40;;;;;;;7.80;7.10;;;12.40;99.90;;;;;;5088819;28;20905;-51
2021/10/02 02:00:08;;;;;;;7.80;7.10;;;12.40;99.90;;;;;;5092658;28;21023;-50
2021/10/02 02:02:35;;;;;;;7.23;6.53;;;12.40;99.90;;;;;;5090414;28;20438;-52
2021/10/02 02:05:05;;;;;;;6.20;5.70;;;12.40;99.90;;;;;;5092390;28;20411;-55
2021/10/02 02:07:32;;;;;;;6.63;6.13;;;12.40;99.90;;;;;;5075441;28;20490;-48
2021/10/02 02:09:59;;;;;;;7.60;6.90;;;12.40;99.90;;;;;;5074786;28;21220;-52
2021/10/02 02:12:32;;;;;;;6.97;6.27;;;12.40;99.90;;;;;;5076566;28;20436;-51
2021/10/02 02:15:04;;;;;;;7.23;6.40;;;12.40;99.90;;;;;;5059420;28;20890;-48
2021/10/02 02:17:32;;;;;;;7.40;6.60;;;12.50;99.90;;;;;;5076906;28;20439;-49
2021/10/02 02:20:01;;;;;;;6.37;5.80;;;12.40;99.90;;;;;;5071674;28;20458;-53
2021/10/02 02:22:26;;;;;;;8.50;6.57;;;12.50;99.90;;;;;;5084580;28;20847;-49
2021/10/02 02:24:52;;;;;;;6.93;6.23;;;12.50;99.90;;;;;;5083309;28;20477;-49
2021/10/02 02:27:18;;;;;;;6.20;5.70;;;12.40;99.90;;;;;;5071600;28;20177;-53
2021/10/02 02:29:44;;;;;;;6.63;6.10;;;12.40;99.90;;;;;;5060297;28;20535;-53
2021/10/02 02:32:10;;;;;;;10.10;6.67;;;12.50;99.90;;;;;;5070691;28;20427;-54
2021/10/02 02:34:36;;;;;;;7.00;6.40;;;12.40;99.90;;;;;;5075171;28;20197;-49
2021/10/02 02:37:02;;;;;;;6.90;6.20;;;12.50;99.90;;;;;;5091153;28;20193;-51
2021/10/02 02:39:28;;;;;;;7.13;6.53;;;12.50;99.90;;;;;;5086808;28;20702;-52
2021/10/02 02:41:55;;;;;;;7.10;6.50;;;12.50;99.90;;;;;;5070852;28;20419;-51
2021/10/02 02:44:21;;;;;;;7.27;6.63;;;12.50;99.90;;;;;;5084912;28;20493;-52
2021/10/02 02:47:00;;;;;;;6.73;6.07;;;12.50;99.90;;;;;;5088223;28;20459;-51
2021/10/02 02:49:47;;;;;;;7.40;6.80;;;12.50;99.90;;;;;;5089873;28;20176;-53
2021/10/02 02:52:38;;;;;;;8.43;6.17;;;12.50;99.90;;;;;;5091720;28;20423;-51
2021/10/02 02:55:13;;;;;;;6.87;6.27;;;12.40;99.90;;;;;;5081467;28;20435;-51
2021/10/02 02:57:43;;;;;;;6.33;5.83;;;12.40;99.90;;;;;;5076240;28;20764;-52
2021/10/02 03:00:11;;;;;;;6.77;6.17;;;12.40;99.90;;;;;;5091281;28;20500;-53
2021/10/02 03:02:41;;;;;;;8.03;6.77;;;12.40;99.90;;;;;;5090579;28;20426;-54
2021/10/02 03:05:07;;;;;;;7.90;6.50;;;12.40;99.90;;;;;;5083406;28;20443;-53
2021/10/02 03:07:39;;;;;;;7.17;6.57;;;12.40;99.90;;;;;;5086298;28;20467;-52
2021/10/02 03:10:10;;;;;;;6.77;6.17;;;12.40;99.90;;;;;;5077686;28;20525;-49
2021/10/02 03:12:40;;;;;;;7.73;7.03;;;12.30;99.90;;;;;;5057954;28;20917;-54
2021/10/02 03:15:06;;;;;;;7.20;6.60;;;12.30;99.90;;;;;;5070685;28;20505;-52
2021/10/02 03:17:32;;;;;;;6.83;6.30;;;12.40;99.90;;;;;;5089746;28;20540;-52
2021/10/02 03:20:00;;;;;;;7.17;6.53;;;12.30;99.90;;;;;;5088180;28;20466;-52
2021/10/02 03:22:28;;;;;;;6.87;6.27;;;12.40;99.90;;;;;;5090315;28;20407;-48
2021/10/02 03:24:56;;;;;;;7.40;6.50;;;12.30;99.90;;;;;;5079382;28;20432;-50
2021/10/02 03:27:22;;;;;;;7.13;6.47;;;12.30;99.90;;;;;;5069492;28;20890;-51
2021/10/02 03:29:49;;;;;;;8.23;6.53;;;12.30;99.90;;;;;;5081941;28;20534;-51
2021/10/02 03:32:15;;;;;;;7.17;5.87;;;12.30;99.90;;;;;;5069731;28;20435;-48
2021/10/02 03:34:41;;;;;;;7.90;6.50;;;12.30;99.90;;;;;;5069566;28;20443;-52
2021/10/02 03:37:07;;;;;;;7.03;6.43;;;12.30;99.90;;;;;;5081435;28;20419;-50
2021/10/02 03:39:33;;;;;;;6.13;5.60;;;12.20;99.90;;;;;;5085124;28;20224;-53
2021/10/02 03:42:10;;;;;;;7.23;6.37;;;12.10;99.90;;;;;;5070247;28;20469;-55
2021/10/02 03:44:42;;;;;;;6.70;6.00;;;12.10;99.90;;;;;;5069122;28;20485;-52
2021/10/02 03:47:09;;;;;;;8.10;6.17;;;12.10;99.90;;;;;;5070334;28;20422;-53
2021/10/02 03:49:35;;;;;;;7.60;6.90;;;12.10;99.90;;;;;;5076742;28;20934;-53
2021/10/02 03:52:00;;;;;;;8.73;6.80;;;12.10;99.90;;;;;;5090743;28;20433;-53
2021/10/02 03:54:26;;;;;;;6.87;6.23;;;12.00;99.90;;;;;;5077277;28;20451;-49
2021/10/02 03:56:51;;;;;;;6.77;6.07;;;12.10;99.90;;;;;;5082729;28;20189;-50
2021/10/02 03:59:17;;;;;;;6.80;6.20;;;12.00;99.90;;;;;;5085637;28;20533;-52
2021/10/02 04:01:42;;;;;;;7.47;6.77;;;12.00;99.90;;;;;;5090167;28;20173;-52
2021/10/02 04:04:08;;;;;;;6.97;6.27;;;12.00;99.90;;;;;;5087620;28;20192;-54
2021/10/02 04:06:33;;;;;;;7.10;6.20;;;12.00;99.90;;;;;;5089935;28;20192;-53
2021/10/02 04:08:59;;;;;;;7.07;6.23;;;12.10;99.90;;;;;;5079003;28;20182;-49
2021/10/02 04:11:26;;;;;;;6.73;6.13;;;12.00;99.90;;;;;;5087298;28;20189;-52
2021/10/02 04:13:51;;;;;;;6.83;6.20;;;12.00;99.90;;;;;;5070194;28;20235;-49
2021/10/02 04:16:17;;;;;;;6.70;6.10;;;12.00;99.90;;;;;;5069583;28;20801;-51
2021/10/02 04:18:42;;;;;;;6.90;6.23;;;12.00;99.90;;;;;;5077148;28;20552;-48
2021/10/02 04:21:08;;;;;;;6.70;6.10;;;12.00;99.90;;;;;;5089850;28;20212;-50
2021/10/02 04:23:33;;;;;;;6.73;6.13;;;12.00;99.90;;;;;;5077139;28;20253;-54
2021/10/02 04:25:59;;;;;;;10.80;6.63;;;12.00;99.90;;;;;;5060601;28;20205;-51
2021/10/02 04:28:25;;;;;;;7.13;6.43;;;11.90;99.90;;;;;;5070275;28;20224;-51
2021/10/02 04:30:50;;;;;;;7.33;6.70;;;11.90;99.90;;;;;;5069359;28;20205;-53
2021/10/02 04:33:16;;;;;;;6.80;6.20;;;11.90;99.90;;;;;;5085267;28;20185;-51
2021/10/02 04:35:42;;;;;;;6.60;6.00;;;11.90;99.90;;;;;;5081007;28;20184;-53
2021/10/02 04:38:07;;;;;;;7.60;6.90;;;11.90;99.90;;;;;;5073371;28;20985;-53
2021/10/02 04:40:33;;;;;;;6.77;6.17;;;11.90;99.90;;;;;;5068562;28;20205;-52
2021/10/02 04:42:59;;;;;;;7.30;6.70;;;11.90;99.90;;;;;;5069107;28;20232;-52
2021/10/02 04:45:24;;;;;;;7.37;6.47;;;11.90;99.90;;;;;;5068450;28;20265;-54
2021/10/02 04:47:50;;;;;;;7.23;6.30;;;11.80;99.90;;;;;;5085056;28;20210;-52
2021/10/02 04:50:16;;;;;;;7.60;6.63;;;11.80;99.90;;;;;;5085359;28;20583;-49
2021/10/02 04:52:42;;;;;;;7.60;6.80;;;11.80;99.90;;;;;;5084206;28;20177;-52
2021/10/02 04:55:08;;;;;;;7.43;6.70;;;11.70;99.90;;;;;;5084947;28;20764;-54
2021/10/02 04:57:34;;;;;;;7.70;6.90;;;11.70;99.90;;;;;;5070296;28;20196;-52
2021/10/02 04:59:59;;;;;;;7.80;7.10;;;11.80;99.90;;;;;;5076009;28;20815;-51
2021/10/02 05:02:25;;;;;;;6.67;6.07;;;11.70;99.90;;;;;;5085090;28;20260;-51
2021/10/02 05:04:50;;;;;;;7.20;6.60;;;11.70;99.90;;;;;;5075193;28;20190;-54
2021/10/02 05:07:16;;;;;;;7.30;6.60;;;11.70;99.90;;;;;;5079322;28;20172;-50
2021/10/02 05:09:42;;;;;;;7.30;6.70;;;11.70;99.90;;;;;;5089639;28;20204;-51
2021/10/02 05:12:09;;;;;;;6.80;6.20;;;11.70;99.90;;;;;;5089835;28;20195;-48
2021/10/02 05:14:36;;;;;;;7.73;6.80;;;11.70;99.90;;;;;;5095940;28;20433;-50
2021/10/02 05:17:04;;;;;;;7.90;7.00;;;11.70;99.90;;;;;;5083066;28;20493;-50
2021/10/02 05:19:30;;;;;;;6.93;6.33;;;11.70;99.90;;;;;;5093671;28;20458;-51
2021/10/02 05:21:56;;;;;;;7.50;6.80;;;11.70;99.90;;;;;;5088762;28;20522;-51
2021/10/02 05:24:21;;;;;;;7.90;7.10;;;11.80;99.90;;;;;;5077548;28;20502;-53
2021/10/02 05:26:47;;;;;;;7.97;6.70;;;11.80;99.90;;;;;;5074652;28;20188;-53
2021/10/02 05:29:12;;;;;;;6.93;6.17;;;11.80;99.90;;;;;;5090462;28;20205;-51
2021/10/02 05:31:38;;;;;;;7.53;6.83;;;11.80;99.90;;;;;;5094539;28;20261;-54
2021/10/02 05:34:03;;;;;;;6.77;6.17;;;11.80;99.90;;;;;;5078854;28;20195;-52
2021/10/02 05:36:29;;;;;;;7.17;6.57;;;11.80;99.90;;;;;;5074947;28;20615;-53
2021/10/02 05:38:55;;;;;;;7.37;6.67;;;11.80;99.90;;;;;;5087174;28;20230;-51
2021/10/02 05:41:20;;;;;;;7.20;6.50;;;11.90;99.90;;;;;;5095173;28;20280;-51
2021/10/02 05:43:46;;;;;;;7.53;6.90;;;11.80;99.90;;;;;;5087804;28;20299;-52
2021/10/02 05:46:11;;;;;;;7.20;6.57;;;11.90;99.90;;;;;;5087838;28;20276;-48
2021/10/02 05:48:37;;;;;;;7.70;7.00;;;11.90;99.90;;;;;;5085742;28;20184;-52
2021/10/02 05:51:03;;;;;;;6.77;6.20;;;11.90;99.90;;;;;;5095653;28;20185;-52
2021/10/02 05:53:29;;;;;;;7.47;6.80;;;11.90;99.90;;;;;;5093227;28;20245;-51
2021/10/02 05:55:56;;;;;;;7.30;6.60;;;11.90;99.90;;;;;;5077310;28;20451;-50
2021/10/02 05:58:21;;;;;;;7.73;6.93;;;11.90;99.90;;;;;;5079541;28;20434;-50
2021/10/02 06:00:47;;;;;;;7.93;7.23;;;11.90;99.90;;;;;;5080593;28;20201;-50
2021/10/02 06:03:13;;;;;;;7.60;6.90;;;11.90;99.90;;;;;;5088441;28;20268;-55
2021/10/02 06:05:39;;;;;;;8.30;7.13;;;11.90;99.90;;;;;;5072551;28;20526;-48
2021/10/02 06:08:04;;;;;;;7.37;6.30;;;11.90;99.90;;;;;;5071104;28;20231;-53
2021/10/02 06:10:30;;;;;;;7.93;7.07;;;12.00;99.90;;;;;;5078079;28;20258;-52
2021/10/02 06:12:56;;;;;;;7.30;6.33;;;11.90;99.90;;;;;;5089162;28;20426;-52
2021/10/02 06:15:23;;;;;;;7.03;6.33;;;12.00;99.90;;;;;;5069310;28;20264;-52
2021/10/02 06:17:49;;;;;;;7.47;6.77;;;12.00;99.90;;;;;;5072562;28;20206;-53
2021/10/02 06:20:15;;;;;;;6.80;6.20;;;12.00;99.90;;;;;;5074736;28;20462;-55
2021/10/02 06:22:41;;;;;;;8.70;7.40;;;12.00;99.90;;;;;;5070798;28;20861;-55
2021/10/02 06:25:07;;;;;;;7.77;6.90;;;12.10;99.90;;;;;;5068684;28;20435;-51
2021/10/02 06:27:32;;;;;;;7.90;7.17;;;12.20;99.90;;;;;;5068124;28;20561;-53
2021/10/02 06:29:59;;;;;;;8.17;7.27;;;12.10;99.90;;;;;;5070442;28;20601;-54
2021/10/02 06:32:25;;;;;;;7.63;7.03;;;12.20;99.90;;;;;;5066782;28;20289;-51
2021/10/02 06:34:50;;;;;;;7.40;6.70;;;12.20;99.90;;;;;;5066382;28;20424;-54
2021/10/02 06:37:16;;;;;;;7.80;7.10;;;12.20;99.90;;;;;;5070478;28;21106;-53
2021/10/02 06:39:41;;;;;;;8.43;7.57;;;12.20;99.90;;;;;;5070971;28;20204;-55
2021/10/02 06:42:07;;;;;;;7.00;6.40;;;12.20;99.90;;;;;;5070818;28;20181;-51
2021/10/02 06:44:33;;;;;;;7.30;6.60;;;12.30;99.90;;;;;;5067827;28;20222;-53
2021/10/02 06:46:58;;;;;;;7.60;6.80;;;12.40;99.90;;;;;;5074841;28;20855;-50
2021/10/02 06:49:28;;;;;;;7.03;6.33;;;12.40;99.90;;;;;;5090055;28;20185;-52
2021/10/02 06:51:54;;;;;;;8.00;7.20;;;12.40;99.90;;;;;;5089330;28;20184;-51
2021/10/02 06:54:20;;;;;;;8.40;7.07;;;12.40;99.90;;;;;;5090571;28;20415;-48
2021/10/02 06:56:45;;;;;;;7.30;6.60;;;12.40;99.90;;;;;;5079896;28;20434;-49
2021/10/02 06:59:11;;;;;;;7.47;6.80;;;12.50;99.90;;;;;;5078411;28;20185;-54
2021/10/02 07:01:37;;;;;;;7.57;6.87;;;12.60;99.90;;;;;;5070107;28;20173;-54
2021/10/02 07:04:02;;;;;;;8.07;7.27;;;12.60;99.90;;;;;;5070705;28;20181;-52
2021/10/02 07:06:28;;;;;;;8.10;7.40;;;12.60;99.90;;;;;;5071925;28;20212;-53
2021/10/02 07:08:54;;;;;;;7.73;7.03;;;12.70;99.90;;;;;;5079197;28;20472;-53
2021/10/02 07:11:19;;;;;;;9.10;7.00;;;12.70;99.90;;;;;;5076625;28;20181;-54
2021/10/02 07:13:45;;;;;;;7.40;6.80;;;12.80;99.90;;;;;;5071307;28;20647;-53
2021/10/02 07:16:10;;;;;;;7.90;7.20;;;12.80;99.90;;;;;;5089647;28;20212;-54
2021/10/02 07:18:36;;;;;;;8.10;7.30;;;12.80;99.90;;;;;;5078130;28;20169;-53
2021/10/02 07:21:02;;;;;;;8.43;7.37;;;12.90;99.90;;;;;;5088520;28;20273;-49
2021/10/02 07:23:29;;;;;;;7.30;6.60;;;13.10;99.90;;;;;;5075394;28;20186;-50
2021/10/02 07:25:56;;;;;;;7.70;7.00;;;13.10;99.90;;;;;;5074544;28;20515;-51
2021/10/02 07:28:22;;;;;;;8.03;7.33;;;13.20;99.90;;;;;;5074866;28;20451;-52
2021/10/02 07:30:48;;;;;;;8.23;7.40;;;13.40;99.90;;;;;;5071160;28;20420;-50
2021/10/02 07:33:14;;;;;;;7.80;7.10;;;13.40;99.90;;;;;;5062261;28;20437;-49
2021/10/02 07:35:39;;;;;;;8.00;7.20;;;13.50;99.90;;;;;;5065390;28;20231;-55
2021/10/02 07:38:05;;;;;;;7.80;7.07;;;13.70;99.90;;;;;;5066683;28;20507;-52
2021/10/02 07:40:31;;;;;;;10.07;7.10;;;13.90;99.90;;;;;;5068534;28;20771;-52
2021/10/02 07:42:57;;;;;;;7.43;6.83;;;14.00;99.90;;;;;;5063311;28;20221;-52
2021/10/02 07:45:25;;;;;;;10.00;7.37;;;14.30;99.90;;;;;;5069665;28;20261;-54
2021/10/02 07:47:53;;;;;;;8.27;7.47;;;14.50;99.90;;;;;;5063678;28;20404;-50
2021/10/02 07:50:19;;;;;;;7.70;7.00;;;14.50;99.90;;;;;;5088351;28;20425;-54
2021/10/02 07:52:45;;;;;;;8.20;7.50;;;14.70;99.90;;;;;;5088196;28;20872;-51
2021/10/02 07:55:14;;;;;;;8.70;7.80;;;14.80;99.90;;;;;;5089148;28;20438;-51
2021/10/02 07:57:42;;;;;;;8.40;7.70;;;14.90;99.90;;;;;;5076477;28;20775;-53
2021/10/02 08:00:17;;;;;;;9.13;8.33;;;14.90;99.90;;;;;;5088296;28;20961;-52
2021/10/02 08:02:44;;;;;;;7.77;7.07;;;14.90;99.90;;;;;;5056484;28;21229;-55
2021/10/02 08:05:10;;;;;;;8.27;7.57;;;15.10;99.90;;;;;;5069306;28;20507;-54
2021/10/02 08:07:40;;;;;;;8.80;8.07;;;15.30;99.90;;;;;;5065722;28;20486;-53
2021/10/02 08:10:06;;;;;;;7.40;6.80;;;15.40;99.90;;;;;;5066134;28;20455;-53
2021/10/02 08:12:31;;;;;;;7.90;7.23;;;15.50;99.90;;;;;;5084377;28;20454;-53
2021/10/02 08:14:57;;;;;;;8.07;7.47;;;15.60;99.90;;;;;;5089671;28;20241;-53
2021/10/02 08:17:25;;;;;;;8.23;7.53;;;15.70;99.90;;;;;;5082049;28;20300;-50
2021/10/02 08:19:55;;;;;;;8.50;7.70;;;15.80;99.90;;;;;;5071095;28;20201;-52
2021/10/02 08:22:23;;;;;;;8.80;8.00;;;15.90;99.90;;;;;;5077904;28;20432;-55
2021/10/02 08:24:51;;;;;;;8.00;7.40;;;16.10;99.90;;;;;;5063998;28;20440;-55
2021/10/02 08:27:18;;;;;;;7.70;7.10;;;16.40;99.90;;;;;;5077753;28;20841;-53
2021/10/02 08:29:44;;;;;;;8.60;7.90;;;16.90;99.90;;;;;;5068981;28;21250;-53
2021/10/02 08:32:10;;;;;;;8.33;7.63;;;17.30;99.90;;;;;;5070011;28;20436;-53
2021/10/02 08:34:36;;;;;;;8.10;7.50;;;17.60;99.50;;;;;;5069289;28;20900;-52
2021/10/02 08:37:01;;;;;;;8.20;7.53;;;17.50;98.80;;;;;;5068194;28;20523;-52
2021/10/02 08:39:27;;;;;;;10.30;7.83;;;17.60;99.10;;;;;;5057794;28;21030;-49
2021/10/02 08:41:52;;;;;;;8.30;7.60;;;17.60;98.70;;;;;;5076841;28;20180;-52
2021/10/02 08:44:22;;;;;;;8.30;7.63;;;17.80;98.70;;;;;;5069108;28;20229;-54
2021/10/02 08:46:50;;;;;;;8.43;7.73;;;18.10;98.00;;;;;;5068538;28;20182;-46
2021/10/02 08:49:31;;;;;;;8.37;7.70;;;18.50;96.80;;;;;;5069573;28;20412;-51
2021/10/02 08:52:01;;;;;;;8.80;7.90;;;19.00;96.10;;;;;;5069566;28;20444;-49
2021/10/02 08:54:27;;;;;;;8.40;7.77;;;19.20;94.90;;;;;;5077946;28;20427;-50
2021/10/02 08:56:53;;;;;;;8.73;8.13;;;19.10;94.90;;;;;;5066890;28;20937;-51
2021/10/02 08:59:20;;;;;;;8.00;7.40;;;19.10;95.10;;;;;;5068601;28;20447;-52
2021/10/02 09:01:46;;;;;;;7.70;7.10;;;19.50;94.70;;;;;;5064275;28;20923;-47
2021/10/02 09:04:12;;;;;;;7.87;7.30;;;20.50;93.10;;;;;;5085481;28;20488;-52
2021/10/02 09:06:38;;;;;;;8.10;7.43;;;21.20;91.20;;;;;;5088806;28;20407;-52
2021/10/02 09:09:06;;;;;;;8.20;7.70;;;22.20;89.10;;;;;;5074593;28;20234;-53
2021/10/02 09:11:32;;;;;;;7.90;7.30;;;23.10;83.70;;;;;;5069004;28;20454;-54
2021/10/02 09:13:58;;;;;;;8.03;7.50;;;23.80;80.10;;;;;;5067571;28;20435;-53
2021/10/02 09:16:23;;;;;;;8.20;7.60;;;24.40;75.10;;;;;;5068976;28;20424;-48
2021/10/02 09:18:49;;;;;;;7.80;7.20;;;24.70;71.60;;;;;;5068133;28;20596;-52
2021/10/02 09:21:15;;;;;;;8.40;7.70;;;25.60;67.90;;;;;;5068656;28;20203;-54
2021/10/02 09:23:46;;;;;;;8.00;7.27;;;26.30;63.10;;;;;;5069381;28;20192;-52
2021/10/02 09:26:12;;;;;;;7.40;7.00;;;26.40;58.30;;;;;;5080665;28;20186;-51
2021/10/02 09:28:40;;;;;;;7.53;7.03;;;26.20;57.90;;;;;;5078705;28;20467;-51
2021/10/02 09:31:06;;;;;;;8.13;7.47;;;25.90;58.20;;;;;;5067708;28;20421;-50
2021/10/02 09:33:32;;;;;;;7.90;7.40;;;25.80;58.50;;;;;;5080202;28;20452;-52
2021/10/02 09:35:58;;;;;;;7.60;7.20;;;25.10;59.00;;;;;;5080580;28;20412;-52
2021/10/02 09:38:23;;;;;;;7.90;7.40;;;24.80;60.60;;;;;;5083111;28;20437;-52
2021/10/02 09:40:58;;;;;;;8.43;7.73;;;24.40;63.10;;;;;;5080850;28;20196;-56
2021/10/02 09:43:24;;;;;;;8.40;7.90;;;24.70;63.30;;;;;;5088393;28;20228;-53
2021/10/02 09:45:51;;;;;;;8.17;7.43;;;25.20;63.20;;;;;;5075574;28;20969;-50
2021/10/02 09:48:29;;;;;;;8.20;7.60;;;25.80;59.00;;;;;;5068896;28;20975;-50
2021/10/02 09:51:01;;;;;;;8.10;7.60;;;26.30;57.70;;;;;;5072220;28;20421;-50
2021/10/02 09:53:27;;;;;;;8.50;8.00;;;26.50;55.40;;;;;;5071010;28;20877;-54
2021/10/02 09:55:53;;;;;;;7.57;7.17;;;26.40;55.40;;;;;;5073756;28;20446;-52
2021/10/02 09:58:27;;;;;;;7.60;6.90;;;26.40;55.60;;;;;;5086260;28;20180;-51
2021/10/02 10:00:53;;;;;;;7.97;7.37;;;26.20;57.00;;;;;;5082321;28;20530;-51
2021/10/02 10:03:19;;;;;;;7.10;6.70;;;26.30;55.70;;;;;;5071410;28;20467;-54
2021/10/02 10:05:53;;;;;;;8.33;7.73;;;26.70;55.90;;;;;;5071761;28;20192;-53
2021/10/02 10:08:26;;;;;;;7.90;7.20;;;27.10;52.90;;;;;;5071899;28;20215;-54
2021/10/02 10:11:04;;;;;;;7.83;7.33;;;27.50;52.90;;;;;;5071955;28;20418;-55
2021/10/02 10:13:30;;;;;;;8.60;8.03;;;28.10;52.00;;;;;;5078017;28;20982;-47
2021/10/02 10:15:57;;;;;;;7.83;7.30;;;28.50;49.10;;;;;;5085989;28;20422;-53
2021/10/02 10:18:30;;;;;;;7.80;7.30;;;27.70;49.80;;;;;;5077492;28;20209;-52
2021/10/02 10:21:09;;;;;;;7.23;6.80;;;27.50;50.50;;;;;;5070942;28;20461;-53
2021/10/02 10:23:41;;;;;;;7.70;7.30;;;28.10;49.90;;;;;;5065820;28;20420;-56
2021/10/02 10:26:15;;;;;;;7.13;6.73;;;28.60;48.30;;;;;;5080574;28;20426;-54
2021/10/02 10:28:44;;;;;;;7.37;6.97;;;28.30;48.40;;;;;;5080514;28;20416;-52
2021/10/02 10:31:18;;;;;;;7.40;6.70;;;28.50;49.00;;;;;;5072942;28;20425;-50
2021/10/02 10:33:46;;;;;;;7.10;6.70;;;28.90;49.00;;;;;;5072431;28;20915;-54
2021/10/02 10:36:12;;;;;;;7.83;7.40;;;29.10;46.60;;;;;;5070607;28;20439;-53
2021/10/02 10:38:40;;;;;;;7.00;6.50;;;28.90;46.30;;;;;;5071143;28;20466;-55
2021/10/02 10:41:06;;;;;;;6.97;6.50;;;28.70;47.70;;;;;;5075470;28;20504;-54
2021/10/02 10:43:34;;;;;;;7.43;7.03;;;28.70;48.20;;;;;;5069276;28;20472;-51
2021/10/02 10:46:06;;;;;;;7.20;6.80;;;29.00;46.50;;;;;;5073682;28;20434;-53
2021/10/02 10:48:32;;;;;;;7.73;7.23;;;30.00;44.90;;;;;;5071063;28;20426;-51
2021/10/02 10:51:12;;;;;;;7.37;6.97;;;29.90;43.20;;;;;;5076066;28;20418;-50
2021/10/02 10:53:59;;;;;;;7.87;7.47;;;30.20;42.60;;;;;;5074974;28;20184;-55
2021/10/02 10:56:40;;;;;;;6.83;6.33;;;30.70;43.20;;;;;;5061035;28;20480;-49
2021/10/02 10:59:06;;;;;;;7.17;6.77;;;30.90;42.30;;;;;;5071313;28;20451;-47
2021/10/02 11:01:37;;;;;;;7.80;7.30;;;31.10;41.80;;;;;;5072745;28;20464;-52
2021/10/02 11:04:03;;;;;;;7.27;6.87;;;31.10;42.40;;;;;;5072155;28;20426;-53
2021/10/02 11:06:54;;;;;;;7.50;7.10;;;31.30;40.90;;;;;;5080166;28;20411;-56
2021/10/02 11:09:39;;;;;;;7.63;7.13;;;31.90;39.20;;;;;;5057781;28;20420;-55
2021/10/02 11:12:09;;;;;;;7.90;7.47;;;31.70;38.70;;;;;;5069930;28;20452;-54
2021/10/02 11:14:47;;;;;;;6.67;6.30;;;31.60;38.60;;;;;;5070455;28;20540;-53
2021/10/02 11:17:14;;;;;;;7.03;6.53;;;31.90;38.30;;;;;;5069149;28;21019;-53
2021/10/02 11:19:43;;;;;;;7.23;6.83;;;31.80;38.70;;;;;;5069741;28;20559;-50
2021/10/02 11:23:13;;;;;;;6.83;6.43;;;31.40;38.70;;;;;;5070131;28;20863;-52
2021/10/02 11:25:39;;;;;;;7.70;7.20;;;31.20;38.80;;;;;;5063974;28;21137;-53
2021/10/02 11:28:26;;;;;;;7.03;6.63;;;30.80;38.20;;;;;;5068996;28;20439;-54
2021/10/02 11:30:53;;;;;;;7.37;6.80;;;30.40;39.50;;;;;;5072838;28;20747;-51
2021/10/02 11:33:52;;;;;;;7.60;7.10;;;30.90;38.40;;;;;;5084399;28;20497;-56
2021/10/02 11:36:32;;;;;;;7.77;7.27;;;31.10;37.10;;;;;;5069697;28;20537;-55
2021/10/02 11:39:21;;;;;;;6.20;5.90;;;31.00;37.70;;;;;;5072449;28;20414;-56
2021/10/02 11:42:07;;;;;;;7.80;7.40;;;31.10;37.30;;;;;;5069518;28;20420;-55
2021/10/02 11:44:32;;;;;;;7.60;7.20;;;31.10;37.00;;;;;;5069246;28;20467;-51
2021/10/02 11:47:35;;;;;;;7.30;6.80;;;30.90;38.20;;;;;;5080949;28;20423;-56
2021/10/02 11:50:07;;;;;;;7.10;6.77;;;31.40;36.10;;;;;;5069458;28;20215;-54
2021/10/02 11:52:37;;;;;;;7.67;6.73;;;31.70;36.10;;;;;;5069560;28;20415;-53
2021/10/02 11:55:34;;;;;;;7.27;6.63;;;31.80;35.20;;;;;;5069244;28;20412;-55
2021/10/02 11:58:08;;;;;;;7.83;7.40;;;32.00;35.40;;;;;;5066817;28;20454;-54
2021/10/02 12:00:49;;;;;;;7.10;6.70;;;31.40;35.60;;;;;;5069441;28;20845;-52
2021/10/02 12:03:22;;;;;;;7.13;6.63;;;31.10;36.30;;;;;;5083595;28;20425;-51
2021/10/02 12:05:49;;;;;;;6.80;6.40;;;31.10;37.60;;;;;;5084492;28;20758;-49
2021/10/02 12:08:16;;;;;;;6.90;6.53;;;31.30;36.20;;;;;;5073325;28;20431;-54
2021/10/02 12:11:02;;;;;;;6.33;5.93;;;31.70;36.30;;;;;;5068305;28;20523;-51
2021/10/02 12:13:29;;;;;;;6.50;6.10;;;32.00;35.30;;;;;;5068957;28;20416;-51
2021/10/02 12:16:07;;;;;;;6.17;5.83;;;31.90;35.90;;;;;;5069077;28;20435;-52
2021/10/02 12:18:58;;;;;;;6.37;6.00;;;31.90;34.40;;;;;;5069004;28;20415;-51
2021/10/02 12:21:23;;;;;;;6.50;6.20;;;31.90;34.60;;;;;;5069572;28;20488;-55
2021/10/02 12:24:27;;;;;;;7.37;6.70;;;31.80;32.50;;;;;;5068065;28;20459;-54
2021/10/02 12:27:05;;;;;;;6.50;6.10;;;31.60;32.30;;;;;;5005409;28;20546;-55
2021/10/02 12:29:45;;;;;;;6.73;6.23;;;30.70;30.80;;;;;;5059647;28;20481;-56
2021/10/02 12:32:19;;;;;;;7.07;6.67;;;30.10;33.20;;;;;;5067437;28;20435;-57
2021/10/02 12:35:02;;;;;;;6.30;5.90;;;30.20;35.30;;;;;;5067513;28;20419;-51
2021/10/02 12:37:31;;;;;;;7.00;6.60;;;30.70;33.20;;;;;;5074865;28;20453;-56
2021/10/02 12:40:05;;;;;;;7.53;7.03;;;30.20;31.00;;;;;;5068285;28;21906;-48
2021/10/02 12:42:40;;;;;;;6.40;6.10;;;29.90;99.90;;;;;;5068099;28;20437;-54
2021/10/02 12:45:12;;;;;;;6.77;6.37;;;29.60;33.40;;;;;;5068631;28;20412;-53
2021/10/02 12:47:39;;;;;;;7.63;7.10;;;29.60;33.40;;;;;;5068630;28;20419;-50
2021/10/02 12:50:15;;;;;;;6.90;6.50;;;29.10;32.90;;;;;;5074683;28;20427;-54
2021/10/02 12:52:42;;;;;;;7.80;7.30;;;29.00;34.40;;;;;;5068674;28;20438;-52
2021/10/02 12:55:13;;;;;;;6.57;6.27;;;29.20;35.00;;;;;;5070449;28;20437;-54
2021/10/02 12:57:40;;;;;;;7.60;7.00;;;29.40;34.20;;;;;;5066782;28;20436;-54
2021/10/02 13:00:11;;;;;;;7.33;6.90;;;28.60;33.70;;;;;;5068644;28;20499;-54
2021/10/02 13:02:48;;;;;;;7.80;6.97;;;27.60;36.60;;;;;;5068706;28;20420;-50
2021/10/02 13:05:16;;;;;;;8.67;8.00;;;28.00;38.20;;;;;;5067392;28;20496;-52
2021/10/02 13:07:53;;;;;;;7.50;6.90;;;28.30;36.70;;;;;;5068587;28;20416;-52
2021/10/02 13:10:22;;;;;;;7.70;7.20;;;28.30;36.20;;;;;;5055507;28;20408;-57
2021/10/02 13:12:57;;;;;;;8.37;7.87;;;27.90;37.50;;;;;;5057615;28;20923;-53
2021/10/02 13:15:38;;;;;;;8.30;7.80;;;28.30;38.00;;;;;;5069067;28;20432;-52
2021/10/02 13:18:11;;;;;;;7.77;7.10;;;28.30;37.40;;;;;;5086625;28;20443;-53
2021/10/02 13:20:53;;;;;;;8.73;8.03;;;28.20;37.90;;;;;;5080471;28;20818;-54
2021/10/02 13:23:36;;;;;;;9.77;8.17;;;28.10;38.50;;;;;;5071768;28;21035;-57
2021/10/02 13:26:09;;;;;;;8.50;8.00;;;28.60;38.40;;;;;;5073457;28;20523;-52
2021/10/02 13:28:48;;;;;;;9.23;8.63;;;28.60;37.30;;;;;;5082894;28;20438;-51
2021/10/02 13:31:16;;;;;;;8.33;7.70;;;28.70;36.90;;;;;;5058709;28;20526;-51
2021/10/02 13:33:45;;;;;;;11.83;10.67;;;28.20;37.90;;;;;;5064057;28;20439;-53
2021/10/02 13:36:31;;;;;;;8.67;8.07;;;28.40;39.70;;;;;;5088766;28;20439;-53
2021/10/02 13:39:17;;;;;;;8.53;7.83;;;28.70;38.90;;;;;;5092993;28;20410;-52
2021/10/02 13:41:50;;;;;;;8.57;7.97;;;29.10;38.70;;;;;;5067462;28;20474;-55
2021/10/02 13:44:51;;;;;;;8.50;7.73;;;29.40;38.00;;;;;;5071593;28;20464;-53
2021/10/02 13:47:23;;;;;;;8.00;7.40;;;29.50;38.50;;;;;;5077473;28;20432;-51
2021/10/02 13:49:49;;;;;;;8.47;7.70;;;29.70;38.00;;;;;;5077091;28;20435;-55